Flight Track Log - Related Links

Times and Time Zones

All times are in EST time to prevent confusion due to time zone crossing. See the AIP5014 flight status page for this flight to view local times or setup timezone preferences in your user account.

Time Position Orientation Groundspeed Altitude Reporting Facility
EST Latitude Longitude Course Direction KTS MPH feet Rate Location/Type
Fri 03:12:02 AM 45.8433 -108.6689 287° West 145 167 7,900  Level Salt Lake Center
Fri 03:13:03 AM 45.8558 -108.7339 285° West 166 191 9,000 1,091 Climbing Salt Lake Center
Fri 03:14:03 AM 45.8672 -108.8028 283° West 177 204 10,100 1,190 Climbing Salt Lake Center
Fri 03:15:04 AM 45.8808 -108.8708 286° West 176 203 11,400 1,240 Climbing Salt Lake Center
Fri 03:16:00 AM 45.9159 -109.0407 287° West  Level FlightAware Approximate
Fri 03:16:04 AM 45.9050 -108.9411 296° West 194 223 12,600  Level Salt Lake Center
Fri 03:17:00 AM 45.9337 -109.1238 287° West  Level FlightAware Approximate
Fri 03:17:05 AM 45.9158 -109.0072 283° West 175 201 14,100  Level Salt Lake Center
Fri 03:18:05 AM 45.9219 -109.0792 277° West 182 209 14,900 750 Climbing Salt Lake Center
Fri 03:19:05 AM 45.9350 -109.1514 285° West 187 215 15,600 496 Climbing Salt Lake Center
Fri 03:20:06 AM 45.9511 -109.2247 288° West 194 223 15,900 248 Climbing Salt Lake Center
Fri 03:21:06 AM 45.9744 -109.3097 292° West 210 242 16,100 149 Climbing Salt Lake Center
Fri 03:22:07 AM 45.9936 -109.3892 289° West 213 245 16,200 -50 Climbing Salt Lake Center
Fri 03:23:07 AM 46.0111 -109.4675 288° West 210 242 16,000 -50 Descending Salt Lake Center
Fri 03:24:07 AM 46.0294 -109.5478 288° West 211 243 16,100 50 Climbing Salt Lake Center
Fri 03:25:08 AM 46.0469 -109.6239 288° West 204 235 16,100  Level Salt Lake Center
Fri 03:26:08 AM 46.0714 -109.7058 293° West 209 241 16,100  Level Salt Lake Center
Fri 03:27:09 AM 46.0850 -109.7875 284° West 213 245 16,100  Level Salt Lake Center
Fri 03:28:09 AM 46.1011 -109.8644 287° West 220 253 16,100  Level Salt Lake Center
Fri 03:29:09 AM 46.1233 -109.9494 291° West 225 259 16,100  Level Salt Lake Center
Fri 03:30:10 AM 46.1403 -110.0350 286° West 224 258 16,100  Level Salt Lake Center
Fri 03:31:10 AM 46.1581 -110.1186 287° West 221 254 16,100  Level Salt Lake Center
Fri 03:32:11 AM 46.1742 -110.2033 285° West 220 253 16,100 -50 Level Salt Lake Center
Fri 03:33:11 AM 46.1894 -110.2869 285° West 218 251 16,000 -100 Descending Salt Lake Center
Fri 03:34:11 AM 46.2072 -110.3647 288° West 212 244 15,900 50 Descending Salt Lake Center
Fri 03:35:12 AM 46.2225 -110.4472 285° West 211 243 16,100 50 Climbing Salt Lake Center
Fri 03:36:12 AM 46.2394 -110.5300 287° West 214 246 16,000 -50 Descending Salt Lake Center
Fri 03:37:12 AM 46.2581 -110.6111 288° West 215 247 16,000 -50 Level Salt Lake Center
Fri 03:38:13 AM 46.2747 -110.6939 286° West 215 247 15,900 -50 Descending Salt Lake Center
Fri 03:39:13 AM 46.2931 -110.7772 288° West 217 250 15,900  Level Salt Lake Center
Fri 03:40:14 AM 46.3150 -110.8758 288° West 216 249 15,900 50 Level Salt Lake Center
Fri 03:41:14 AM 46.3331 -110.9581 288° West 216 249 16,000  Climbing Salt Lake Center
Fri 03:42:14 AM 46.3478 -111.0369 285° West 218 251 15,900 -50 Descending Salt Lake Center
Fri 03:43:15 AM 46.3644 -111.1253 285° West 223 257 15,900 50 Level Salt Lake Center
Fri 03:44:15 AM 46.3781 -111.2164 282° West 227 261 16,000 50 Climbing Salt Lake Center
Fri 03:45:15 AM 46.4006 -111.3031 291° West 227 261 16,000 -50 Level Salt Lake Center
Fri 03:46:16 AM 46.4208 -111.3883 289° West 221 254 15,900 -50 Descending Salt Lake Center
Fri 03:47:16 AM 46.4369 -111.4758 285° West 221 254 15,900 100 Level Salt Lake Center
Fri 03:48:16 AM 46.4486 -111.5481 283° West 220 253 16,100 50 Climbing Salt Lake Center
Fri 03:49:17 AM 46.4647 -111.6344 285° West 221 254 16,000  Descending Salt Lake Center
Fri 03:50:17 AM 46.4803 -111.7206 285° West 221 254 16,100 -50 Climbing Salt Lake Center
Fri 03:51:18 AM 46.4961 -111.8036 286° West 216 249 15,900 -99 Descending Salt Lake Center
Fri 03:52:18 AM 46.5103 -111.8872 284° West 215 247 15,900 100 Level Salt Lake Center
Fri 03:53:18 AM 46.5286 -111.9717 288° West 219 252 16,100 50 Climbing Salt Lake Center
Fri 03:54:19 AM 46.5472 -112.0556 288° West 218 251 16,000  Descending Salt Lake Center
Fri 03:55:19 AM 46.5619 -112.1400 284° West 218 251 16,100  Climbing Salt Lake Center
Fri 03:56:19 AM 46.5775 -112.2242 285° West 216 249 16,000 -50 Descending Salt Lake Center
Fri 03:57:20 AM 46.5892 -112.3094 281° West 216 249 16,000 50 Level Salt Lake Center
Fri 03:58:20 AM 46.6008 -112.3919 282° West 210 242 16,100  Climbing Salt Lake Center
Fri 03:59:20 AM 46.6175 -112.4672 288° West 199 229 16,000 -50 Descending Salt Lake Center
Fri 04:00:21 AM 46.6358 -112.5419 290° West 197 227 16,000 -99 Level Salt Lake Center
Fri 04:01:21 AM 46.6519 -112.6175 287° West 196 226 15,800 -300 Descending Salt Lake Center
Fri 04:02:21 AM 46.6661 -112.6967 285° West 200 230 15,400 -450 Descending Salt Lake Center
Fri 04:03:21 AM 46.6836 -112.7950 285° West 208 239 14,900 -496 Descending Salt Lake Center
Fri 04:04:22 AM 46.6986 -112.8758 285° West 208 239 14,400 -645 Descending Salt Lake Center
Fri 04:05:22 AM 46.7128 -112.9569 284° West 206 237 13,600 -600 Descending Salt Lake Center
Fri 04:06:22 AM 46.7281 -113.0442 284° West 212 244 13,200 -446 Descending Salt Lake Center
Fri 04:07:23 AM 46.7450 -113.1336 285° West 219 252 12,700 -496 Descending Salt Lake Center
Fri 04:08:23 AM 46.7611 -113.2236 285° West 224 258 12,200 -350 Descending Salt Lake Center
Fri 04:09:23 AM 46.7758 -113.3025 285° West 224 258 12,000 -364 Descending Salt Lake Center
Fri 04:10:35 AM 46.8014 -113.4156 288° West 199 229 11,400 -586 Descending Salt Lake Center
Fri 04:11:36 AM 46.8169 -113.5044 284° West 228 262 10,700 -545 Descending Salt Lake Center
Fri 04:12:36 AM 46.8300 -113.5956 282° West 229 264 10,300 -450 Descending Salt Lake Center
Fri 04:13:36 AM 46.8414 -113.6942 280° West 229 264 9,800 -550 Descending Salt Lake Center
Fri 04:14:36 AM 46.8536 -113.7836 281° West 226 260 9,200 -694 Descending Salt Lake Center
Fri 04:15:37 AM 46.8642 -113.8783 279° West 235 270 8,400 -1,240 Descending Salt Lake Center
Fri 04:16:37 AM 46.8689 -113.9725 274° West 231 266 6,700 -2,050 Descending Salt Lake Center
Fri 04:17:37 AM 46.8858 -114.0392 290° West 183 211 4,300 -1,750 Descending Salt Lake Center
Fri 04:18:37 AM 46.9117 -114.0847 310° West 150 173 3,200 -1,100 Descending Salt Lake Center

Login

Don't have an account? Register now (free) for customized features, flight alerts, and more!